SBCR/CMG METAR and TAF weather

Enter ICAO airport designator
Station Type Date Time Source
SBCR METAR 2020/01/25 21:00 UTC NOAA

SBCR 252100Z 20005KT 160V220 9999 FEW040 35/21 Q1006


Station Type Date Time Source
SBCR Decoded METAR 2020/01/25 21:00 UTC NOAA

Corumba, Brazil (SBCR) 19-05S 057-30W
Jan 25, 2020 - 04:00 PM EST / 2020.01.25 2100 UTC
Wind: from the SSW (200 degrees) at 6 MPH (5 KT) (direction variable):0
Visibility: greater than 7 mile(s):0
Sky conditions: mostly clear
Temperature: 95 F (35 C)
Heat index: 101.3 F (38.5 C):1
Dew Point: 69 F (21 C)
Relative Humidity: 44%
Pressure (altimeter): 29.71 in. Hg (1006 hPa)
ob: SBCR 252100Z 20005KT 160V220 9999 FEW040 35/21 Q1006
cycle: 21

Station Type Date Time Source
SBCR TAF 2020/01/26 00:00 UTC NOAA

TAF SBCR 252045Z 2600/2624 12005KT CAVOK TN25/2608Z TX37/2619Z
BECMG 2614/2616 9999 SCT040
BECMG 2622/2624 CAVOK
RMK PDW

Example: see airport list